^^
Your Local Weather - Clay, NY Station Historical Data
Daily Summary for May 4, 2017 Units:  Metric    English   Both
« Previous Day
Next Day »
Daily Weekly Monthly Yearly Custom
  High: Low: Average:
Temperature: 15.3 °C 0.7 °C 8.1 °C
Dew Point: 6.4 °C -3.3 °C 2 °C
Humidity: 92% 29% 70%
Wind Speed: 11.3km/h 0km/h 2.9km/h
Wind Gust: 19.3km/h - -
Wind- - ESE
Pressure: 1023.2 hPa 1013.4 hPa -
Precipitation: 2.03 mm    
Historical Graphs
 
 
Tabular Data for May 4, 2017
Time Temperature Dew Point Pressure Wind Wind Speed Wind Gust Humidity Rainfall Rate (Hourly) solar
00:02 3.8 °C 0.9 °C 1022.2 hPa Calm     81% 0 mm 0 W/m2
00:08 3.9 °C 1.1 °C 1022.2 hPa Calm     82% 0 mm 0 W/m2
00:14 3.7 °C 1.1 °C 1022.6 hPa Calm     83% 0 mm 0 W/m2
00:20 3.6 °C 1.2 °C 1022.2 hPa Calm     84% 0 mm 0 W/m2
00:26 3.7 °C 1.2 °C 1022.2 hPa Calm     84% 0 mm 0 W/m2
00:32 3.7 °C 1.4 °C 1021.9 hPa Calm     85% 0 mm 0 W/m2
00:38 3.6 °C 1.3 °C 1022.2 hPa Calm     85% 0 mm 0 W/m2
00:44 3.4 °C 1.1 °C 1022.2 hPa Calm     85% 0 mm 0 W/m2
00:50 3.3 °C 1 °C 1022.2 hPa Calm     85% 0 mm 0 W/m2
00:56 3.2 °C 1.1 °C 1022.2 hPa Calm     86% 0 mm 0 W/m2
01:02 3.3 °C 1.2 °C 1022.2 hPa Calm     86% 0 mm 0 W/m2
01:08 3.3 °C 1.2 °C 1022.2 hPa Calm     86% 0 mm 0 W/m2
01:14 3.4 °C 1.4 °C 1022.6 hPa Calm     87% 0 mm 0 W/m2
01:20 3.4 °C 1.4 °C 1022.6 hPa Calm     87% 0 mm 0 W/m2
01:26 3.3 °C 1.3 °C 1022.6 hPa Calm     87% 0 mm 0 W/m2
01:32 3.1 °C 1.3 °C 1022.6 hPa Calm     88% 0 mm 0 W/m2
01:38 3 °C 1.1 °C 1022.6 hPa Calm     87% 0 mm 0 W/m2
01:44 2.9 °C 1.1 °C 1022.6 hPa Calm     88% 0 mm 0 W/m2
01:50 2.8 °C 1.1 °C 1022.6 hPa Calm     88% 0 mm 0 W/m2
01:56 2.7 °C 0.9 °C 1022.6 hPa Calm     88% 0 mm 0 W/m2
02:02 2.6 °C 0.8 °C 1022.6 hPa Calm     88% 0 mm 0 W/m2
02:08 2.6 °C 0.8 °C 1022.6 hPa Calm     88% 0 mm 0 W/m2
02:14 2.5 °C 0.7 °C 1022.6 hPa Calm     88% 0 mm 0 W/m2
02:20 2.4 °C 0.6 °C 1022.6 hPa Calm     88% 0 mm 0 W/m2
02:26 2.3 °C 0.5 °C 1022.6 hPa Calm     88% 0 mm 0 W/m2
02:32 2.2 °C 0.4 °C 1022.2 hPa Calm     88% 0 mm 0 W/m2
02:38 2.2 °C 0.6 °C 1022.2 hPa Calm     89% 0 mm 0 W/m2
02:44 2.2 °C 0.6 °C 1022.6 hPa Calm     89% 0 mm 0 W/m2
02:50 2.1 °C 0.5 °C 1022.6 hPa Calm     89% 0 mm 0 W/m2
02:56 1.9 °C 0.3 °C 1021.9 hPa Calm     89% 0 mm 0 W/m2
03:02 1.8 °C 0.2 °C 1021.9 hPa Calm     89% 0 mm 0 W/m2
03:08 1.7 °C 0.1 °C 1021.9 hPa Calm     89% 0 mm 0 W/m2
03:14 1.6 °C 0 °C 1021.9 hPa Calm     89% 0 mm 0 W/m2
03:20 1.6 °C -0.1 °C 1021.9 hPa Calm     89% 0 mm 0 W/m2
03:26 1.4 °C -0.2 °C 1021.9 hPa Calm     89% 0 mm 0 W/m2
03:32 1.4 °C -0.2 °C 1022.2 hPa Calm     89% 0 mm 0 W/m2
03:38 1.4 °C -0.1 °C 1022.2 hPa Calm     90% 0 mm 0 W/m2
03:44 1.3 °C -0.1 °C 1022.2 hPa Calm     90% 0 mm 0 W/m2
03:50 1.3 °C -0.2 °C 1021.9 hPa Calm     90% 0 mm 0 W/m2
03:56 1.3 °C -0.2 °C 1022.2 hPa Calm     90% 0 mm 0 W/m2
04:02 1.3 °C -0.2 °C 1022.2 hPa Calm     90% 0 mm 0 W/m2
04:08 1.2 °C -0.3 °C 1022.2 hPa Calm     90% 0 mm 0 W/m2
04:16 1.1 °C -0.3 °C 1022.2 hPa Calm     90% 0 mm 0 W/m2
04:22 1.1 °C -0.3 °C 1022.2 hPa Calm     90% 0 mm 0 W/m2
04:28 1.2 °C -0.3 °C 1021.9 hPa Calm     90% 0 mm 0 W/m2
04:34 1.2 °C -0.2 °C 1021.9 hPa Calm     91% 0 mm 0 W/m2
04:40 1.1 °C -0.2 °C 1021.9 hPa Calm     91% 0 mm 0 W/m2
04:46 1.1 °C -0.4 °C 1022.2 hPa Calm     90% 0 mm 0 W/m2
04:52 0.9 °C -0.3 °C 1022.2 hPa Calm     91% 0 mm 0 W/m2
04:58 0.9 °C -0.3 °C 1022.2 hPa Calm     91% 0 mm 0 W/m2
05:04 0.9 °C -0.4 °C 1022.2 hPa Calm     91% 0 mm 0 W/m2
05:10 1 °C -0.3 °C 1021.9 hPa Calm     91% 0 mm 0 W/m2
05:16 1.1 °C -0.2 °C 1021.9 hPa Calm     91% 0 mm 0 W/m2
05:22 0.9 °C -0.4 °C 1022.2 hPa Calm     91% 0 mm 0 W/m2
05:28 0.7 °C -0.6 °C 1022.2 hPa Calm     91% 0 mm 0 W/m2
05:34 0.7 °C -0.6 °C 1022.6 hPa Calm   1.6 km/h 91% 0 mm 0 W/m2
05:40 0.8 °C -0.4 °C 1022.6 hPa Calm     91% 0 mm 0 W/m2
05:46 0.8 °C -0.5 °C 1022.6 hPa Calm     91% 0 mm 0 W/m2
05:52 0.7 °C -0.6 °C 1022.6 hPa Calm     91% 0 mm 0 W/m2
05:58 0.7 °C -0.6 °C 1022.6 hPa Calm     91% 0 mm 0 W/m2
06:04 0.7 °C -0.6 °C 1022.6 hPa Calm     91% 0 mm 7 W/m2
06:10 0.9 °C -0.3 °C 1022.6 hPa Calm     92% 0 mm 12 W/m2
06:16 1 °C -0.2 °C 1022.6 hPa Calm     92% 0 mm 23 W/m2
06:22 1.2 °C 0 °C 1022.6 hPa Calm     92% 0 mm 35 W/m2
06:28 1.4 °C 0.3 °C 1022.6 hPa Calm     92% 0 mm 47 W/m2
06:34 1.8 °C 0.6 °C 1022.9 hPa Calm     92% 0 mm 72 W/m2
06:40 2.1 °C 0.9 °C 1022.9 hPa Calm     92% 0 mm 44 W/m2
06:46 2.3 °C 1.1 °C 1022.9 hPa Calm   3.2 km/h 92% 0 mm 47 W/m2
06:52 2.5 °C 1.3 °C 1022.9 hPa ENE 1.6 km/h 1.6 km/h 92% 0 mm 46 W/m2
06:58 2.7 °C 1.3 °C 1022.9 hPa ENE 1.6 km/h 3.2 km/h 91% 0 mm 42 W/m2
07:04 2.7 °C 1.2 °C 1022.9 hPa ENE 1.6 km/h 1.6 km/h 90% 0 mm 35 W/m2
07:10 2.7 °C 0.9 °C 1022.9 hPa Calm     88% 0 mm 40 W/m2
07:16 2.9 °C 1.2 °C 1022.9 hPa Calm     88% 0 mm 214 W/m2
07:22 3.6 °C 1.5 °C 1022.9 hPa Calm     86% 0 mm 234 W/m2
07:28 4.5 °C 1.7 °C 1022.9 hPa Calm   4.8 km/h 82% 0 mm 255 W/m2
07:34 4.8 °C 1.3 °C 1022.9 hPa East 1.6 km/h 4.8 km/h 78% 0 mm 260 W/m2
07:40 5.1 °C 1.3 °C 1023.2 hPa SSE 1.6 km/h 1.6 km/h 77% 0 mm 285 W/m2
07:46 5.4 °C 1.1 °C 1023.2 hPa SSE 3.2 km/h 6.4 km/h 74% 0 mm 278 W/m2
07:52 5.7 °C 1.3 °C 1023.2 hPa SSE 4.8 km/h 8 km/h 73% 0 mm 302 W/m2
07:58 6.1 °C 1.6 °C 1023.2 hPa SSE 3.2 km/h 8 km/h 73% 0 mm 348 W/m2
08:04 6.6 °C 1.7 °C 1023.2 hPa SE 3.2 km/h 3.2 km/h 71% 0 mm 334 W/m2
08:10 6.8 °C 1.3 °C 1023.2 hPa SSE 3.2 km/h 3.2 km/h 68% 0 mm 374 W/m2
08:16 7.1 °C 1.3 °C 1023.2 hPa SSE 3.2 km/h 4.8 km/h 67% 0 mm 394 W/m2
08:22 7.7 °C 1.6 °C 1023.2 hPa SE 1.6 km/h 4.8 km/h 65% 0 mm 431 W/m2
08:28 7.9 °C 1.3 °C 1023.2 hPa SE 3.2 km/h 4.8 km/h 63% 0 mm 367 W/m2
08:34 8.2 °C 1.3 °C 1023.2 hPa SE 3.2 km/h 4.8 km/h 62% 0 mm 429 W/m2
08:40 8.5 °C 1.2 °C 1023.2 hPa SE 1.6 km/h 1.6 km/h 60% 0 mm 260 W/m2
08:48 9.1 °C 1.7 °C 1022.9 hPa East 3.2 km/h 3.2 km/h 60% 0 mm 571 W/m2
08:54 9.6 °C 1.2 °C 1022.9 hPa East 3.2 km/h 4.8 km/h 56% 0 mm 427 W/m2
09:00 9.4 °C 0.8 °C 1022.9 hPa ENE 3.2 km/h 4.8 km/h 55% 0 mm 381 W/m2
09:06 9.4 °C 0.3 °C 1022.6 hPa SE 3.2 km/h 8 km/h 53% 0 mm 299 W/m2
09:12 9.5 °C 0.7 °C 1022.6 hPa ENE 3.2 km/h 3.2 km/h 54% 0 mm 401 W/m2
09:18 9.7 °C 0.6 °C 1022.9 hPa East 3.2 km/h 4.8 km/h 53% 0 mm 255 W/m2
09:24 9.9 °C 0.8 °C 1022.9 hPa East 1.6 km/h 1.6 km/h 53% 0 mm 304 W/m2
09:30 10.1 °C 1.2 °C 1022.6 hPa East 1.6 km/h 1.6 km/h 54% 0 mm 332 W/m2
09:36 10.3 °C 0.8 °C 1022.6 hPa East 3.2 km/h 4.8 km/h 52% 0 mm 355 W/m2
09:42 10.6 °C 2.1 °C 1022.6 hPa ENE 1.6 km/h 3.2 km/h 56% 0 mm 367 W/m2
09:48 10.8 °C 1.3 °C 1022.6 hPa ENE 3.2 km/h 6.4 km/h 52% 0 mm 315 W/m2
09:54 11 °C 0.7 °C 1022.2 hPa SE 3.2 km/h 3.2 km/h 49% 0 mm 619 W/m2
10:00 11.4 °C 1.1 °C 1022.2 hPa SE 1.6 km/h 1.6 km/h 49% 0 mm 598 W/m2
10:06 11.9 °C 0.7 °C 1021.9 hPa NNE 1.6 km/h 6.4 km/h 46% 0 mm 689 W/m2
10:12 12.1 °C 0.8 °C 1021.9 hPa SE 3.2 km/h 3.2 km/h 46% 0 mm 564 W/m2
10:18 12.3 °C 0.7 °C 1021.9 hPa NE 3.2 km/h 3.2 km/h 45% 0 mm 490 W/m2
10:24 12.5 °C 2.1 °C 1021.9 hPa ENE 3.2 km/h 6.4 km/h 49% 0 mm 547 W/m2
10:30 12.4 °C 2 °C 1021.6 hPa ENE 3.2 km/h 4.8 km/h 49% 0 mm 561 W/m2
10:36 12.8 °C 2.3 °C 1021.6 hPa SE 3.2 km/h 14.5 km/h 49% 0 mm 775 W/m2
10:42 13.2 °C 2.9 °C 1021.6 hPa NNE 4.8 km/h 6.4 km/h 50% 0 mm 603 W/m2
10:48 13.1 °C 2.8 °C 1021.6 hPa SE 4.8 km/h 6.4 km/h 50% 0 mm 496 W/m2
10:54 13.3 °C 3.3 °C 1021.2 hPa North 3.2 km/h 4.8 km/h 51% 0 mm 513 W/m2
11:00 12.9 °C 1.9 °C 1021.2 hPa SSE 3.2 km/h 6.4 km/h 47% 0 mm 336 W/m2
11:06 12.9 °C 3.6 °C 1021.2 hPa East 3.2 km/h 9.7 km/h 53% 0 mm 265 W/m2
11:12 12.9 °C 3.3 °C 1021.2 hPa NE 3.2 km/h 4.8 km/h 52% 0 mm 229 W/m2
11:18 12.9 °C 3.6 °C 1021.2 hPa NE 3.2 km/h 6.4 km/h 53% 0 mm 285 W/m2
11:24 12.7 °C 4.7 °C 1021.2 hPa NNE 4.8 km/h 4.8 km/h 58% 0 mm 462 W/m2
11:30 13 °C 4.2 °C 1021.2 hPa NNE 4.8 km/h 6.4 km/h 55% 0 mm 468 W/m2
11:36 12.9 °C 4.3 °C 1021.2 hPa NE 4.8 km/h 9.7 km/h 56% 0 mm 457 W/m2
11:42 13.1 °C 4.2 °C 1021.2 hPa East 4.8 km/h 4.8 km/h 55% 0 mm 450 W/m2
11:48 13.4 °C 5.3 °C 1021.2 hPa SE 4.8 km/h 9.7 km/h 58% 0 mm 461 W/m2
11:54 13.7 °C 4.8 °C 1020.9 hPa ENE 4.8 km/h 4.8 km/h 55% 0 mm 489 W/m2
12:00 13.3 °C 3.3 °C 1020.9 hPa ENE 6.4 km/h 6.4 km/h 51% 0 mm 506 W/m2
12:06 13.6 °C 3.7 °C 1020.9 hPa ENE 6.4 km/h 6.4 km/h 51% 0 mm 450 W/m2
12:12 13.8 °C 4.1 °C 1020.9 hPa NE 4.8 km/h 8 km/h 52% 0 mm 366 W/m2
12:18 13.9 °C 3.4 °C 1020.5 hPa ESE 4.8 km/h 8 km/h 49% 0 mm 348 W/m2
12:24 14 °C 1.9 °C 1020.5 hPa SE 3.2 km/h 3.2 km/h 44% 0 mm 341 W/m2
12:30 14.3 °C 3.2 °C 1020.5 hPa SE 1.6 km/h 1.6 km/h 47% 0 mm 348 W/m2
12:36 14.7 °C 4.6 °C 1020.5 hPa Calm   1.6 km/h 51% 0 mm 346 W/m2
12:42 15 °C -1.6 °C 1020.2 hPa SE 1.6 km/h 6.4 km/h 32% 0 mm 360 W/m2
12:48 15.1 °C -1.5 °C 1020.2 hPa South 4.8 km/h 11.3 km/h 32% 0 mm 350 W/m2
12:54 15.3 °C -1.8 °C 1020.2 hPa SSW 6.4 km/h 8 km/h 31% 0 mm 334 W/m2
13:00 15.1 °C -0.7 °C 1019.9 hPa South 6.4 km/h 6.4 km/h 34% 0 mm 318 W/m2
13:06 15 °C -2.9 °C 1019.9 hPa SSW 8 km/h 12.9 km/h 29% 0 mm 345 W/m2
13:12 15.1 °C -2.9 °C 1019.9 hPa SW 6.4 km/h 8 km/h 29% 0 mm 339 W/m2
13:18 15.1 °C -1.9 °C 1019.9 hPa SSE 6.4 km/h 8 km/h 31% 0 mm 302 W/m2
13:24 15.1 °C -2.4 °C 1019.9 hPa SSW 6.4 km/h 6.4 km/h 30% 0 mm 315 W/m2
13:30 14.9 °C -2.6 °C 1019.9 hPa SSE 8 km/h 12.9 km/h 30% 0 mm 322 W/m2
13:36 14.8 °C -1.8 °C 1019.9 hPa South 8 km/h 12.9 km/h 32% 0 mm 306 W/m2
13:42 14.8 °C -2.6 °C 1019.9 hPa South 8 km/h 8 km/h 30% 0 mm 285 W/m2
13:48 14.8 °C -1.8 °C 1019.5 hPa South 6.4 km/h 9.7 km/h 32% 0 mm 258 W/m2
13:54 14.7 °C -2.3 °C 1019.5 hPa South 6.4 km/h 11.3 km/h 31% 0 mm 260 W/m2
14:00 14.6 °C -2.3 °C 1019.2 hPa SE 8 km/h 8 km/h 31% 0 mm 241 W/m2
14:06 14.6 °C -1.2 °C 1019.2 hPa SE 8 km/h 11.3 km/h 34% 0 mm 218 W/m2
14:12 14.4 °C -2.5 °C 1019.2 hPa SSE 6.4 km/h 8 km/h 31% 0 mm 229 W/m2
14:18 14.5 °C -2.9 °C 1018.8 hPa SSE 4.8 km/h 8 km/h 30% 0 mm 229 W/m2
14:24 14.5 °C -2.9 °C 1019.2 hPa SSE 6.4 km/h 12.9 km/h 30% 0 mm 223 W/m2
14:30 14.4 °C -2.1 °C 1018.8 hPa South 8 km/h 11.3 km/h 32% 0 mm 174 W/m2
14:36 14.4 °C -1.3 °C 1019.2 hPa South 6.4 km/h 12.9 km/h 34% 0 mm 149 W/m2
14:42 14.2 °C -3.2 °C 1018.8 hPa SSE 6.4 km/h 6.4 km/h 30% 0 mm 158 W/m2
14:48 14.2 °C -3.2 °C 1018.8 hPa SSW 8 km/h 11.3 km/h 30% 0 mm 141 W/m2
14:54 14.1 °C -2.8 °C 1018.8 hPa SSW 8 km/h 11.3 km/h 31% 0 mm 135 W/m2
15:00 14.1 °C -3.3 °C 1018.8 hPa South 6.4 km/h 6.4 km/h 30% 0 mm 137 W/m2
15:06 14.1 °C -2.4 °C 1018.8 hPa SSE 6.4 km/h 6.4 km/h 32% 0 mm 132 W/m2
15:12 14 °C -2.9 °C 1018.8 hPa SSE 8 km/h 11.3 km/h 31% 0 mm 105 W/m2
15:18 13.9 °C -1.7 °C 1018.8 hPa SE 9.7 km/h 14.5 km/h 34% 0 mm 137 W/m2
15:24 13.9 °C -2.5 °C 1018.5 hPa SSE 8 km/h 11.3 km/h 32% 0 mm 134 W/m2
15:30 13.9 °C -2.2 °C 1018.2 hPa SE 9.7 km/h 11.3 km/h 33% 0 mm 100 W/m2
15:36 13.8 °C -1.8 °C 1018.2 hPa SSE 8 km/h 11.3 km/h 34% 0 mm 90 W/m2
15:42 13.8 °C -1.8 °C 1018.2 hPa SSE 8 km/h 11.3 km/h 34% 0 mm 93 W/m2
15:48 13.8 °C -1.4 °C 1018.2 hPa SSE 6.4 km/h 11.3 km/h 35% 0 mm 77 W/m2
15:54 13.8 °C -1.1 °C 1018.2 hPa SE 6.4 km/h 6.4 km/h 36% 0 mm 67 W/m2
16:00 13.6 °C -0.5 °C 1018.2 hPa SSW 4.8 km/h 4.8 km/h 38% 0 mm 67 W/m2
16:06 13.4 °C 0.1 °C 1018.8 hPa SE 4.8 km/h 6.4 km/h 40% 0 mm 62 W/m2
16:12 13.4 °C -0.3 °C 1019.2 hPa South 8 km/h 17.7 km/h 39% 0 mm 56 W/m2
16:18 13 °C 0.1 °C 1019.2 hPa SSE 11.3 km/h 17.7 km/h 41% 0 mm 53 W/m2
16:24 12.6 °C 0.9 °C 1019.2 hPa South 9.7 km/h 14.5 km/h 45% 0 mm 54 W/m2
16:30 12.2 °C 1.2 °C 1019.2 hPa SW 11.3 km/h 14.5 km/h 47% 0 mm 58 W/m2
16:36 11.9 °C 1.8 °C 1019.2 hPa SSE 9.7 km/h 16.1 km/h 50% 0 mm 65 W/m2
16:42 11.3 °C 2.8 °C 1019.5 hPa South 11.3 km/h 19.3 km/h 56% 0 mm 65 W/m2
16:48 10.7 °C 3.4 °C 1019.9 hPa SSE 9.7 km/h 19.3 km/h 61% 0 mm 44 W/m2
16:54 10.4 °C 3.4 °C 1019.9 hPa SE 8 km/h 11.3 km/h 62% 0 mm 35 W/m2
17:00 10.3 °C 3.8 °C 1019.9 hPa SE 8 km/h 8 km/h 64% 0 mm 40 W/m2
17:06 10.3 °C 4 °C 1019.9 hPa South 6.4 km/h 8 km/h 65% 0 mm 37 W/m2
17:12 10.1 °C 3.8 °C 1019.5 hPa SSE 6.4 km/h 6.4 km/h 65% 0 mm 40 W/m2
17:18 10 °C 3.9 °C 1019.2 hPa SE 3.2 km/h 6.4 km/h 66% 0 mm 37 W/m2
17:24 9.9 °C 3.7 °C 1018.8 hPa SSE 1.6 km/h 3.2 km/h 65% 0 mm 51 W/m2
17:30 9.9 °C 4.5 °C 1018.8 hPa ENE 1.6 km/h 4.8 km/h 69% 0 mm 49 W/m2
17:36 9.9 °C 4.3 °C 1018.5 hPa East 3.2 km/h 6.4 km/h 68% 0 mm 60 W/m2
17:42 9.8 °C 4.2 °C 1018.2 hPa ESE 4.8 km/h 4.8 km/h 68% 0 mm 56 W/m2
17:48 9.8 °C 4.3 °C 1018.2 hPa ENE 4.8 km/h 8 km/h 69% 0 mm 51 W/m2
17:54 9.7 °C 4.5 °C 1018.2 hPa East 3.2 km/h 4.8 km/h 70% 0 mm 62 W/m2
18:00 9.7 °C 4.4 °C 1018.2 hPa East 1.6 km/h 3.2 km/h 70% 0 mm 44 W/m2
18:06 9.6 °C 4.4 °C 1017.8 hPa East 3.2 km/h 3.2 km/h 70% 0 mm 44 W/m2
18:12 9.6 °C 4.3 °C 1017.8 hPa ENE 3.2 km/h 9.7 km/h 70% 0 mm 28 W/m2
18:18 9.6 °C 4.6 °C 1017.8 hPa SE 3.2 km/h 9.7 km/h 71% 0 mm 23 W/m2
18:24 9.6 °C 4.6 °C 1017.8 hPa East 1.6 km/h 3.2 km/h 71% 0 mm 32 W/m2
18:30 9.6 °C 4.6 °C 1017.5 hPa ENE 3.2 km/h 3.2 km/h 71% 0 mm 21 W/m2
18:36 9.6 °C 4.6 °C 1017.2 hPa ENE 3.2 km/h 4.8 km/h 71% 0 mm 19 W/m2
18:42 9.6 °C 4.6 °C 1017.2 hPa ENE 3.2 km/h 4.8 km/h 71% 0 mm 14 W/m2
18:48 9.5 °C 4.7 °C 1017.2 hPa ENE 3.2 km/h 4.8 km/h 72% 0 mm 12 W/m2
18:54 9.4 °C 4.8 °C 1017.2 hPa ENE 3.2 km/h 6.4 km/h 73% 0 mm 12 W/m2
19:00 9.3 °C 4.9 °C 1017.2 hPa ENE 1.6 km/h 1.6 km/h 74% 0 mm 9 W/m2
19:06 9.2 °C 5.2 °C 1017.2 hPa ENE 1.6 km/h 3.2 km/h 76% 0 mm 9 W/m2
19:12 8.9 °C 5.4 °C 1016.8 hPa East 1.6 km/h 4.8 km/h 79% 1.78 mm 11 W/m2
19:18 8.7 °C 5.6 °C 1016.5 hPa NE 3.2 km/h 6.4 km/h 81% 1.78 mm 11 W/m2
19:24 8.6 °C 5.7 °C 1016.1 hPa ENE 3.2 km/h 3.2 km/h 82% 1.27 mm 12 W/m2
19:30 8.5 °C 5.8 °C 1016.1 hPa ENE 3.2 km/h 3.2 km/h 83% 0 mm 9 W/m2
19:36 8.5 °C 5.9 °C 1016.1 hPa NE 3.2 km/h 4.8 km/h 84% 0 mm 5 W/m2
19:42 8.4 °C 6.1 °C 1016.1 hPa NE 3.2 km/h 9.7 km/h 85% 0 mm 7 W/m2
19:48 8.4 °C 6.1 °C 1016.1 hPa ENE 4.8 km/h 9.7 km/h 85% 0 mm 5 W/m2
19:54 8.4 °C 6.1 °C 1016.1 hPa ENE 3.2 km/h 4.8 km/h 85% 0 mm 0 W/m2
20:00 8.4 °C 6.1 °C 1016.1 hPa NE 3.2 km/h 3.2 km/h 85% 0 mm 0 W/m2
20:06 8.4 °C 6.1 °C 1016.5 hPa NE 3.2 km/h 3.2 km/h 85% 0 mm 0 W/m2
20:12 8.5 °C 6.1 °C 1016.8 hPa NE 1.6 km/h 1.6 km/h 85% 0 mm 0 W/m2
20:18 8.4 °C 6.2 °C 1016.8 hPa Calm   1.6 km/h 86% 0 mm 0 W/m2
20:24 8.4 °C 6.2 °C 1017.2 hPa Calm     86% 0 mm 0 W/m2
20:30 8.4 °C 6.2 °C 1016.8 hPa Calm   1.6 km/h 86% 0 mm 0 W/m2
20:36 8.4 °C 6.3 °C 1016.8 hPa NE 1.6 km/h 1.6 km/h 87% 0 mm 0 W/m2
20:42 8.3 °C 6.3 °C 1016.5 hPa Calm   1.6 km/h 87% 0 mm 0 W/m2
20:48 8.3 °C 6.4 °C 1016.5 hPa Calm   1.6 km/h 88% 0 mm 0 W/m2
20:54 8.3 °C 6.4 °C 1016.5 hPa Calm   1.6 km/h 88% 1.78 mm 0 W/m2
21:00 8.2 °C 6.3 °C 1016.1 hPa ENE 1.6 km/h 1.6 km/h 88% 1.78 mm 0 W/m2
21:06 8.2 °C 6.3 °C 1016.1 hPa NE 1.6 km/h 9.7 km/h 88% 1.02 mm 0 W/m2
21:12 8.1 °C 6.4 °C 1015.8 hPa ENE 3.2 km/h 4.8 km/h 89% 0 mm 0 W/m2
21:18 8.2 °C 6.3 °C 1015.8 hPa East 4.8 km/h 6.4 km/h 88% 0 mm 0 W/m2
21:24 8.2 °C 6.3 °C 1015.8 hPa East 3.2 km/h 4.8 km/h 88% 0 mm 0 W/m2
21:30 8.2 °C 6.3 °C 1015.8 hPa East 3.2 km/h 3.2 km/h 88% 0 mm 0 W/m2
21:36 8.2 °C 6.3 °C 1015.5 hPa ESE 3.2 km/h 4.8 km/h 88% 0 mm 0 W/m2
21:42 8.2 °C 6.3 °C 1015.5 hPa ENE 3.2 km/h 3.2 km/h 88% 0 mm 0 W/m2
21:48 8.2 °C 6.3 °C 1015.5 hPa ENE 1.6 km/h 4.8 km/h 88% 0 mm 0 W/m2
21:54 8.3 °C 6.4 °C 1015.5 hPa ESE 1.6 km/h 1.6 km/h 88% 0 mm 0 W/m2
22:00 8.2 °C 6.2 °C 1015.5 hPa East 3.2 km/h 4.8 km/h 87% 0 mm 0 W/m2
22:06 8.3 °C 6.2 °C 1015.1 hPa ENE 1.6 km/h 4.8 km/h 87% 0 mm 0 W/m2
22:12 8.3 °C 6.2 °C 1015.1 hPa ENE 1.6 km/h 4.8 km/h 87% 0 mm 0 W/m2
22:18 8.3 °C 6.2 °C 1014.8 hPa ENE 3.2 km/h 4.8 km/h 87% 0 mm 0 W/m2
22:24 8.3 °C 6.2 °C 1014.8 hPa SE 3.2 km/h 6.4 km/h 87% 0 mm 0 W/m2
22:30 8.3 °C 6.1 °C 1014.4 hPa ENE 3.2 km/h 3.2 km/h 86% 0 mm 0 W/m2
22:36 8.4 °C 6.2 °C 1014.4 hPa East 4.8 km/h 4.8 km/h 86% 0 mm 0 W/m2
22:42 8.4 °C 6 °C 1014.4 hPa ENE 3.2 km/h 11.3 km/h 85% 0 mm 0 W/m2
22:48 8.4 °C 5.9 °C 1014.4 hPa ENE 4.8 km/h 11.3 km/h 84% 0 mm 0 W/m2
22:54 8.4 °C 5.9 °C 1014.1 hPa SSE 3.2 km/h 4.8 km/h 84% 0 mm 0 W/m2
23:00 8.4 °C 5.9 °C 1013.8 hPa East 4.8 km/h 4.8 km/h 84% 0 mm 0 W/m2
23:06 8.4 °C 5.9 °C 1013.4 hPa SE 6.4 km/h 8 km/h 84% 0 mm 0 W/m2
23:12 8.4 °C 5.8 °C 1013.4 hPa ESE 6.4 km/h 6.4 km/h 84% 0 mm 0 W/m2
23:18 8.4 °C 5.7 °C 1014.1 hPa SSE 4.8 km/h 6.4 km/h 83% 0 mm 0 W/m2
23:24 8.5 °C 5.8 °C 1014.1 hPa ENE 3.2 km/h 3.2 km/h 83% 0 mm 0 W/m2
23:30 8.4 °C 5.7 °C 1013.8 hPa ENE 3.2 km/h 3.2 km/h 83% 0 mm 0 W/m2
23:36 8.4 °C 5.7 °C 1014.1 hPa NE 3.2 km/h 3.2 km/h 83% 0 mm 0 W/m2
23:42 8.3 °C 5.7 °C 1013.8 hPa East 1.6 km/h 3.2 km/h 84% 0 mm 0 W/m2
23:48 8.2 °C 5.6 °C 1013.4 hPa ENE 3.2 km/h 6.4 km/h 84% 0 mm 0 W/m2
23:54 8.2 °C 5.7 °C 1013.4 hPa ENE 4.8 km/h 4.8 km/h 84% 0 mm 0 W/m2
Country Meadow, Clay, NY, USA
Compliments of Weather Underground - 2 mb